createdAt,value
2017-08-11T00:00:12.070Z,995.2
2017-08-11T00:01:22.820Z,995.27
2017-08-11T00:02:33.162Z,995.48
2017-08-11T00:03:44.209Z,995.69
2017-08-11T00:04:54.623Z,995.95
2017-08-11T00:06:04.975Z,996.11
2017-08-11T00:07:15.331Z,996.2
2017-08-11T00:08:25.368Z,996
2017-08-11T00:09:35.411Z,996.16
2017-08-11T00:10:45.512Z,996.22
2017-08-11T00:11:55.549Z,996.45
2017-08-11T00:13:05.597Z,996.82
2017-08-11T00:14:15.947Z,997.4
2017-08-11T00:15:25.985Z,997.8
2017-08-11T00:16:36.398Z,997.98
2017-08-11T00:17:46.748Z,998.12
2017-08-11T00:18:56.778Z,998.54
2017-08-11T00:20:07.918Z,998.7
2017-08-11T00:21:18.269Z,998.63
2017-08-11T00:22:28.669Z,998.63
2017-08-11T00:23:38.091Z,998.42
2017-08-11T00:24:48.142Z,998.02
2017-08-11T00:25:58.499Z,997.53
2017-08-11T00:27:08.837Z,996.74
2017-08-11T00:28:18.615Z,995.51
2017-08-11T00:29:28.667Z,994.8
2017-08-11T00:30:38.725Z,994.84
2017-08-11T00:31:48.761Z,994.84
2017-08-11T00:32:58.805Z,994.95
2017-08-11T00:34:08.902Z,995.17
2017-08-11T00:35:18.944Z,995.05
2017-08-11T00:36:29.309Z,994.94
2017-08-11T00:37:39.361Z,994.79
2017-08-11T00:38:49.407Z,994.72
2017-08-11T00:39:59.487Z,994.78
2017-08-11T00:41:09.837Z,994.91
2017-08-11T00:42:20.210Z,995.08
2017-08-11T00:43:30.567Z,995.1
2017-08-11T00:44:40.601Z,995.22
2017-08-11T00:45:51.001Z,995.45
2017-08-11T00:47:00.717Z,995.72
2017-08-11T00:48:11.073Z,995.94
2017-08-11T00:49:21.427Z,996.09
2017-08-11T00:50:31.773Z,996.21
2017-08-11T00:51:42.185Z,996.44
2017-08-11T00:52:52.237Z,996.52
2017-08-11T00:54:02.283Z,996.39
2017-08-11T00:55:12.023Z,996.2
2017-08-11T00:56:22.374Z,996.09
2017-08-11T00:57:32.476Z,996.14
2017-08-11T00:58:42.814Z,996.24
2017-08-11T00:59:52.537Z,996.31
2017-08-11T01:01:02.569Z,996.34
2017-08-11T01:02:12.608Z,996.36
2017-08-11T01:03:22.381Z,996.42
2017-08-11T01:04:32.425Z,996.46
2017-08-11T01:05:42.464Z,996.43
2017-08-11T01:06:52.830Z,996.31
2017-08-11T01:08:03.210Z,996.25
2017-08-11T01:09:13.625Z,996.27
2017-08-11T01:10:23.651Z,996.28
2017-08-11T01:11:34.012Z,996.27
2017-08-11T01:12:44.365Z,996.24
2017-08-11T01:13:54.409Z,996.22
2017-08-11T01:15:04.185Z,996.23
2017-08-11T01:16:13.912Z,996.28
2017-08-11T01:17:24.259Z,996.26
2017-08-11T01:18:33.969Z,996.17
2017-08-11T01:19:44.303Z,996.18
2017-08-11T01:20:54.717Z,996.19
2017-08-11T01:22:04.746Z,996.15
2017-08-11T01:23:15.102Z,996.18
2017-08-11T01:24:25.444Z,996.21
2017-08-11T01:25:35.785Z,996.22
2017-08-11T01:26:46.202Z,996.26
2017-08-11T01:27:55.930Z,996.27
2017-08-11T01:29:06.292Z,996.22
2017-08-11T01:30:16.331Z,996.22
2017-08-11T01:31:26.680Z,996.22
2017-08-11T01:32:36.455Z,996.18
2017-08-11T01:33:46.816Z,996.16
2017-08-11T01:34:56.859Z,996.17
2017-08-11T01:36:06.282Z,996.21
2017-08-11T01:37:16.021Z,996.14
2017-08-11T01:38:26.114Z,996.15
2017-08-11T01:39:36.461Z,996.18
2017-08-11T01:40:46.184Z,996.11
2017-08-11T01:41:56.539Z,996.14
2017-08-11T01:43:06.572Z,996.09
2017-08-11T01:44:16.975Z,996.02
2017-08-11T01:45:26.706Z,996.01
2017-08-11T01:46:36.742Z,996
2017-08-11T01:47:48.539Z,995.95
2017-08-11T01:48:58.897Z,996
2017-08-11T01:50:08.998Z,995.97
2017-08-11T01:51:19.044Z,996.02
2017-08-11T01:52:29.086Z,995.95
2017-08-11T01:53:39.127Z,995.93
2017-08-11T01:54:49.160Z,995.93
2017-08-11T01:55:59.251Z,995.88
2017-08-11T01:57:09.622Z,995.93
2017-08-11T01:58:19.974Z,995.98
2017-08-11T01:59:30.333Z,995.97
2017-08-11T02:00:40.676Z,995.98
2017-08-11T02:01:50.460Z,996.03
2017-08-11T02:03:00.817Z,996.04
2017-08-11T02:04:10.870Z,996.01
2017-08-11T02:05:20.948Z,996.01
2017-08-11T02:06:30.988Z,996.02
2017-08-11T02:07:40.765Z,996.01
2017-08-11T02:08:51.110Z,996.02
2017-08-11T02:10:01.462Z,995.95
2017-08-11T02:11:11.503Z,995.87
2017-08-11T02:12:21.845Z,995.82
2017-08-11T02:13:32.252Z,995.79
2017-08-11T02:14:41.684Z,995.78
2017-08-11T02:15:51.717Z,995.77
2017-08-11T02:17:01.462Z,995.83
2017-08-11T02:18:11.833Z,995.82
2017-08-11T02:19:21.918Z,995.88
2017-08-11T02:20:32.297Z,995.82
2017-08-11T02:21:42.019Z,995.81
2017-08-11T02:22:51.752Z,995.79
2017-08-11T02:24:01.174Z,995.81
2017-08-11T02:25:11.571Z,995.81
2017-08-11T02:26:21.917Z,995.77
2017-08-11T02:27:31.639Z,995.76
2017-08-11T02:28:41.680Z,995.68
2017-08-11T02:29:51.718Z,995.65
2017-08-11T02:31:01.493Z,995.6
2017-08-11T02:32:11.837Z,995.61
2017-08-11T02:33:22.210Z,995.63
2017-08-11T02:34:32.564Z,995.63
2017-08-11T02:35:42.305Z,995.65
2017-08-11T02:36:52.072Z,995.66
2017-08-11T02:38:02.120Z,995.59
2017-08-11T02:39:12.510Z,995.55
2017-08-11T02:40:22.891Z,995.58
2017-08-11T02:41:32.940Z,995.67
2017-08-11T02:42:43.364Z,995.81
2017-08-11T02:43:53.703Z,995.92
2017-08-11T02:45:03.751Z,995.97
2017-08-11T02:46:13.797Z,996.01
2017-08-11T02:47:24.148Z,996.05
2017-08-11T02:48:34.227Z,996.05
2017-08-11T02:49:43.948Z,996.04
2017-08-11T02:50:54.010Z,996.03
2017-08-11T02:52:03.748Z,996.08
2017-08-11T02:53:14.124Z,996.06
2017-08-11T02:54:24.199Z,996.08
2017-08-11T02:55:34.542Z,996.09
2017-08-11T02:56:44.899Z,996.09
2017-08-11T02:57:54.621Z,996.12
2017-08-11T02:59:04.685Z,996.18
2017-08-11T03:00:14.774Z,996.18
2017-08-11T03:01:24.496Z,996.24
2017-08-11T03:33:45.865Z,996.28
2017-08-11T03:34:55.903Z,996.24
2017-08-11T03:36:05.612Z,996.2
2017-08-11T03:37:15.653Z,996.1
2017-08-11T03:38:25.378Z,995.96
2017-08-11T03:39:35.474Z,995.85
2017-08-11T03:40:45.834Z,995.76
2017-08-11T03:41:55.251Z,995.75
2017-08-11T03:43:05.588Z,995.75
2017-08-11T03:44:15.934Z,995.75
2017-08-11T03:45:26.346Z,995.8
2017-08-11T03:46:36.389Z,995.84
2017-08-11T03:47:46.745Z,995.79
2017-08-11T03:48:56.801Z,995.81
2017-08-11T03:50:07.148Z,995.72
2017-08-11T03:51:16.935Z,995.7
2017-08-11T03:52:26.669Z,995.7
2017-08-11T03:53:36.705Z,995.73
2017-08-11T03:54:47.073Z,995.78
2017-08-11T03:55:57.422Z,995.87
2017-08-11T03:57:07.839Z,995.88
2017-08-11T03:58:17.582Z,995.93
2017-08-11T03:59:27.926Z,995.96
2017-08-11T04:00:37.974Z,995.98
2017-08-11T04:01:48.017Z,995.99
2017-08-11T04:02:58.087Z,996.01
2017-08-11T04:04:07.805Z,996.04
2017-08-11T04:05:17.216Z,996.1
2017-08-11T04:06:27.262Z,996.18
2017-08-11T04:07:37.300Z,996.3
2017-08-11T04:08:47.496Z,996.34
2017-08-11T04:09:57.836Z,996.41
2017-08-11T04:11:07.887Z,996.52
2017-08-11T04:12:17.922Z,996.56
2017-08-11T04:13:28.262Z,996.65
2017-08-11T04:14:38.046Z,996.66
2017-08-11T04:15:48.088Z,996.75
2017-08-11T04:16:58.438Z,996.75
2017-08-11T04:18:08.518Z,996.72
2017-08-11T04:19:18.871Z,996.68
2017-08-11T04:20:28.955Z,996.67
2017-08-11T04:21:39.193Z,996.62
2017-08-11T04:22:49.569Z,996.54
2017-08-11T04:23:59.944Z,996.47
2017-08-11T04:25:09.979Z,996.34
2017-08-11T04:26:20.376Z,996.29
2017-08-11T04:27:30.085Z,996.26
2017-08-11T04:28:40.448Z,996.21
2017-08-11T04:29:50.183Z,996.22
2017-08-11T04:31:00.222Z,996.13
2017-08-11T04:32:10.327Z,996.06
2017-08-11T04:33:20.708Z,995.96
2017-08-11T04:34:31.081Z,995.95
2017-08-11T04:35:41.463Z,995.93
2017-08-11T04:36:51.191Z,995.87
2017-08-11T04:38:01.580Z,995.87
2017-08-11T04:39:11.622Z,995.86
2017-08-11T04:40:21.962Z,995.81
2017-08-11T04:41:32.308Z,995.78
2017-08-11T04:42:42.662Z,995.7
2017-08-11T04:43:53.064Z,995.6
2017-08-11T04:45:03.407Z,995.54
2017-08-11T04:46:13.750Z,995.52
2017-08-11T04:47:23.804Z,995.49
2017-08-11T04:48:33.853Z,995.48
2017-08-11T04:49:44.259Z,995.5
2017-08-11T04:50:54.855Z,995.51
2017-08-11T04:52:05.210Z,995.48
2017-08-11T04:53:15.570Z,995.59
2017-08-11T04:54:25.943Z,995.48
2017-08-11T04:55:36.043Z,995.47
2017-08-11T04:56:46.079Z,995.43
2017-08-11T04:57:55.802Z,995.35
2017-08-11T04:59:06.215Z,995.37
2017-08-11T05:00:16.580Z,995.36
2017-08-11T05:01:26.657Z,995.34
2017-08-11T05:02:37.014Z,995.32
2017-08-11T05:03:47.070Z,995.23
2017-08-11T05:04:57.121Z,995.22
2017-08-11T05:06:07.486Z,995.22
2017-08-11T05:07:17.573Z,995.22
2017-08-11T05:08:27.927Z,995.23
2017-08-11T05:09:37.968Z,995.24
2017-08-11T05:10:48.012Z,995.24
2017-08-11T05:11:58.045Z,995.31
2017-08-11T05:13:08.465Z,995.34
2017-08-11T05:14:18.824Z,995.41
2017-08-11T05:15:28.888Z,995.45
2017-08-11T05:16:38.939Z,995.49
2017-08-11T05:17:48.997Z,995.52
2017-08-11T05:18:59.406Z,995.51
2017-08-11T05:20:09.752Z,995.48
2017-08-11T05:21:19.779Z,995.42
2017-08-11T05:22:30.136Z,995.37
2017-08-11T05:23:40.508Z,995.36
2017-08-11T05:24:50.585Z,995.08
2017-08-11T05:26:00.984Z,994.82
2017-08-11T05:27:11.365Z,994.74
2017-08-11T05:28:21.399Z,994.9
2017-08-11T05:29:31.758Z,995.24
2017-08-11T05:30:42.166Z,995.66
2017-08-11T05:31:52.517Z,995.87
2017-08-11T05:33:02.572Z,996.12
2017-08-11T05:34:12.940Z,996.04
2017-08-11T05:35:23.302Z,996.01
2017-08-11T05:36:33.394Z,996.09
2017-08-11T05:37:43.747Z,995.87
2017-08-11T05:38:53.784Z,996.05
2017-08-11T05:40:04.141Z,996.23
2017-08-11T05:41:14.535Z,996.26
2017-08-11T05:42:24.968Z,996.27
2017-08-11T05:43:35.336Z,996.14
2017-08-11T05:44:45.712Z,995.9
2017-08-11T05:45:56.088Z,995.8
2017-08-11T05:47:05.811Z,995.89
2017-08-11T05:48:16.208Z,995.93
2017-08-11T05:49:26.553Z,995.96
2017-08-11T05:50:36.908Z,995.98
2017-08-11T05:51:46.942Z,996.18
2017-08-11T05:52:56.970Z,996.4
2017-08-11T05:54:07.054Z,996.5
2017-08-11T05:55:17.410Z,996.52
2017-08-11T05:56:27.770Z,996.45
2017-08-11T05:57:37.806Z,996.42
2017-08-11T05:58:47.852Z,996.33
2017-08-11T05:59:58.251Z,996.22
2017-08-11T06:01:08.596Z,996.18
2017-08-11T06:02:18.961Z,996.24
2017-08-11T06:03:29.318Z,996.33
2017-08-11T06:04:39.049Z,996.43
2017-08-11T06:05:49.151Z,996.46
2017-08-11T06:06:59.184Z,996.49
2017-08-11T06:08:09.518Z,996.45
2017-08-11T06:09:19.568Z,996.44
2017-08-11T06:10:29.937Z,996.42
2017-08-11T06:11:40.336Z,996.4
2017-08-11T06:12:52.145Z,996.31
2017-08-11T06:14:02.190Z,996.28
2017-08-11T06:15:12.551Z,996.24
2017-08-11T06:16:22.894Z,996.28
2017-08-11T06:17:33.015Z,996.31
2017-08-11T06:18:43.380Z,996.38
2017-08-11T06:19:53.746Z,996.4
2017-08-11T06:21:04.100Z,996.39
2017-08-11T06:22:14.142Z,996.34
2017-08-11T06:23:24.255Z,996.13
2017-08-11T06:24:34.637Z,995.97
2017-08-11T06:25:44.998Z,995.92
2017-08-11T06:26:55.046Z,995.82
2017-08-11T06:28:05.401Z,995.86
2017-08-11T06:29:15.803Z,995.86
2017-08-11T06:30:26.166Z,995.85
2017-08-11T06:31:36.202Z,995.78
2017-08-11T06:32:46.248Z,995.77
2017-08-11T06:33:56.291Z,995.71
2017-08-11T06:35:05.761Z,995.7
2017-08-11T06:36:16.143Z,995.66
2017-08-11T06:37:26.190Z,995.66
2017-08-11T06:38:36.250Z,995.54
2017-08-11T06:39:46.599Z,995.52
2017-08-11T06:40:57.023Z,995.49
2017-08-11T06:42:07.378Z,995.38
2017-08-11T06:43:17.756Z,995.3
2017-08-11T06:44:27.813Z,995.25
2017-08-11T06:45:37.849Z,995.23
2017-08-11T06:46:47.951Z,995.17
2017-08-11T06:47:58.297Z,995.13
2017-08-11T06:49:08.338Z,995.12
2017-08-11T06:50:18.671Z,995.13
2017-08-11T06:51:28.402Z,995.08
2017-08-11T06:52:38.801Z,995.14
2017-08-11T06:53:49.171Z,995.19
2017-08-11T06:54:59.539Z,995.24
2017-08-11T06:56:09.902Z,995.22
2017-08-11T06:57:20.263Z,995.27
2017-08-11T06:58:30.689Z,995.17
2017-08-11T06:59:41.033Z,995.18
2017-08-11T07:00:51.386Z,995.17
2017-08-11T07:02:01.740Z,995.17
2017-08-11T07:03:11.809Z,995.07
2017-08-11T07:04:21.907Z,995.05
2017-08-11T07:05:31.929Z,995.03
2017-08-11T07:06:41.957Z,994.99
2017-08-11T07:07:52.303Z,995.07
2017-08-11T07:09:02.335Z,995.14
2017-08-11T07:10:12.436Z,995.3
2017-08-11T07:11:22.792Z,995.39
2017-08-11T07:12:32.840Z,995.45
2017-08-11T07:13:44.654Z,995.49
2017-08-11T07:14:55.012Z,995.57
2017-08-11T07:16:05.405Z,995.72
2017-08-11T07:17:15.756Z,995.76
2017-08-11T07:18:25.808Z,995.81
2017-08-11T07:19:35.873Z,995.9
2017-08-11T07:20:45.925Z,995.94
2017-08-11T07:21:56.041Z,996
2017-08-11T07:23:06.396Z,995.99
2017-08-11T07:24:16.743Z,995.95
2017-08-11T07:25:27.101Z,996.03
2017-08-11T07:26:37.480Z,996.04
2017-08-11T07:27:47.882Z,995.98
2017-08-11T07:28:58.242Z,995.97
2017-08-11T07:30:08.586Z,995.95
2017-08-11T07:31:18.630Z,995.94
2017-08-11T07:32:28.995Z,995.87
2017-08-11T07:33:39.402Z,995.85
2017-08-11T07:34:49.467Z,995.88
2017-08-11T07:35:59.817Z,995.88
2017-08-11T07:37:09.862Z,995.9
2017-08-11T07:38:19.906Z,995.87
2017-08-11T07:39:29.990Z,995.96
2017-08-11T07:40:40.037Z,996.02
2017-08-11T07:41:50.397Z,996.08
2017-08-11T07:43:00.455Z,996.15
2017-08-11T07:44:10.807Z,996.16
2017-08-11T07:45:20.907Z,996.21
2017-08-11T07:46:31.270Z,996.29
2017-08-11T07:47:41.624Z,996.31
2017-08-11T07:48:51.984Z,996.33
2017-08-11T07:50:02.032Z,996.26
2017-08-11T07:51:12.457Z,996.12
2017-08-11T07:52:22.513Z,996.04
2017-08-11T07:53:32.870Z,995.99
2017-08-11T07:54:43.230Z,996.09
2017-08-11T07:55:53.604Z,996.11
2017-08-11T07:57:04.001Z,996.22
2017-08-11T07:58:14.361Z,996.31
2017-08-11T07:59:24.410Z,996.37
2017-08-11T08:00:34.136Z,996.35
2017-08-11T08:01:44.500Z,996.32
2017-08-11T08:02:54.305Z,996.37
2017-08-11T08:04:04.662Z,996.34
2017-08-11T08:05:15.025Z,996.37
2017-08-11T08:06:25.398Z,996.31
2017-08-11T08:07:35.766Z,996.19
2017-08-11T08:08:46.175Z,996.16
2017-08-11T08:09:56.528Z,996.17
2017-08-11T08:11:06.876Z,996.27
2017-08-11T08:12:17.229Z,996.18
2017-08-11T08:13:27.577Z,996.15
2017-08-11T08:14:37.375Z,996.15
2017-08-11T08:15:47.745Z,996.11
2017-08-11T08:16:58.108Z,996.01
2017-08-11T08:18:08.154Z,995.96
2017-08-11T08:19:18.530Z,995.83
2017-08-11T08:20:28.965Z,995.83
2017-08-11T08:21:39.339Z,995.72
2017-08-11T08:22:49.380Z,995.68
2017-08-11T08:23:59.757Z,995.63
2017-08-11T08:25:09.801Z,995.63
2017-08-11T08:26:20.235Z,995.59
2017-08-11T08:27:30.285Z,995.47
2017-08-11T08:28:40.326Z,995.39
2017-08-11T08:29:50.686Z,995.35
2017-08-11T08:31:01.026Z,995.34
2017-08-11T08:32:11.430Z,995.36
2017-08-11T08:33:21.788Z,995.37
2017-08-11T08:34:31.838Z,995.3
2017-08-11T08:35:42.185Z,995.27
2017-08-11T08:36:52.531Z,995.24
2017-08-11T08:38:02.968Z,995.2
2017-08-11T08:39:12.992Z,995.17
2017-08-11T08:40:25.093Z,995.11
2017-08-11T08:41:35.483Z,995.03
2017-08-11T08:42:45.839Z,994.96
2017-08-11T08:43:55.923Z,994.91
2017-08-11T08:45:06.274Z,994.8
2017-08-11T08:46:16.618Z,994.79
2017-08-11T08:47:26.961Z,994.79
2017-08-11T08:48:37.314Z,994.85
2017-08-11T08:49:47.731Z,994.9
2017-08-11T08:50:58.089Z,994.96
2017-08-11T08:52:08.137Z,994.9
2017-08-11T08:53:18.506Z,994.81
2017-08-11T08:54:28.871Z,994.7
2017-08-11T08:55:38.960Z,994.49
2017-08-11T08:56:49.332Z,994.31
2017-08-11T08:57:59.683Z,994.26
2017-08-11T08:59:09.730Z,994.16
2017-08-11T09:00:20.091Z,994.08
2017-08-11T09:01:30.533Z,994.03
2017-08-11T09:02:40.897Z,993.99
2017-08-11T09:03:51.279Z,994.01
2017-08-11T09:05:01.647Z,994.12
2017-08-11T09:06:12.007Z,994.2
2017-08-11T09:07:22.416Z,994.21
2017-08-11T09:08:32.792Z,994.26
2017-08-11T09:09:43.148Z,994.34
2017-08-11T09:10:53.178Z,994.41
2017-08-11T09:12:03.553Z,994.45
2017-08-11T09:13:13.958Z,994.52
2017-08-11T09:14:24.327Z,994.51
2017-08-11T09:15:34.700Z,994.43
2017-08-11T09:16:46.012Z,994.39
2017-08-11T09:17:56.068Z,994.36
2017-08-11T09:19:06.474Z,994.56
2017-08-11T09:20:16.526Z,994.89
2017-08-11T09:21:26.583Z,995.09
2017-08-11T09:22:36.944Z,995.37
2017-08-11T09:23:47.295Z,995.52
2017-08-11T09:24:58.857Z,995.49
2017-08-11T09:26:09.265Z,995.4
2017-08-11T09:27:19.604Z,995.15
2017-08-11T09:28:29.983Z,994.81
2017-08-11T09:29:40.024Z,994.61
2017-08-11T09:30:50.436Z,994.53
2017-08-11T09:32:00.835Z,994.22
2017-08-11T09:33:11.167Z,993.7
2017-08-11T09:34:20.582Z,993.51
2017-08-11T09:35:30.951Z,993.45
2017-08-11T09:36:41.362Z,993.75
2017-08-11T09:37:51.120Z,993.56
2017-08-11T09:39:01.474Z,993.54
2017-08-11T09:40:11.840Z,993.52
2017-08-11T09:41:21.882Z,993.88
2017-08-11T09:42:31.967Z,994.22
2017-08-11T09:43:41.674Z,994.23
2017-08-11T09:44:51.396Z,993.86
2017-08-11T09:46:01.749Z,993.4
2017-08-11T09:47:11.824Z,993.18
2017-08-11T09:48:22.253Z,993.46
2017-08-11T09:49:32.588Z,993.67
2017-08-11T09:50:42.953Z,993.99
2017-08-11T09:51:53.896Z,994.33
2017-08-11T09:53:03.944Z,994.5
2017-08-11T09:54:13.724Z,994.3
2017-08-11T09:55:24.103Z,994.38
2017-08-11T09:56:34.457Z,994.54
2017-08-11T09:57:44.832Z,994.69
2017-08-11T09:58:55.190Z,994.76
2017-08-11T10:00:05.271Z,994.86
2017-08-11T10:01:15.655Z,994.87
2017-08-11T10:02:25.993Z,994.81
2017-08-11T10:03:35.726Z,994.78
2017-08-11T10:04:46.079Z,994.74
2017-08-11T10:05:56.484Z,994.74
2017-08-11T10:07:06.840Z,994.75
2017-08-11T10:08:16.892Z,994.75
2017-08-11T10:09:26.957Z,994.76
2017-08-11T10:10:37.027Z,994.74
2017-08-11T10:11:47.455Z,994.77
2017-08-11T10:12:57.508Z,994.75
2017-08-11T10:14:07.565Z,994.63
2017-08-11T10:15:17.927Z,994.54
2017-08-11T10:16:28.308Z,994.33
2017-08-11T10:17:38.404Z,994.25
2017-08-11T10:18:48.447Z,994.2
2017-08-11T10:19:58.807Z,994.12
2017-08-11T10:21:09.160Z,994.08
2017-08-11T10:22:19.517Z,994.01
2017-08-11T10:23:29.609Z,993.99
2017-08-11T10:24:39.965Z,993.99
2017-08-11T10:25:50.007Z,994.03
2017-08-11T10:27:00.073Z,994.06
2017-08-11T10:28:10.427Z,994.04
2017-08-11T10:29:20.527Z,994.03
2017-08-11T10:30:30.903Z,994.03
2017-08-11T10:31:41.102Z,994.01
2017-08-11T10:32:51.468Z,994.02
2017-08-11T10:34:01.541Z,994.07
2017-08-11T10:35:11.944Z,994.1
2017-08-11T10:36:22.317Z,994.17
2017-08-11T10:37:32.365Z,994.14
2017-08-11T10:38:42.734Z,994.14
2017-08-11T10:39:53.094Z,994.17
2017-08-11T10:41:03.474Z,994.15
2017-08-11T10:42:13.845Z,994.14
2017-08-11T10:43:24.188Z,994.1
2017-08-11T10:44:34.547Z,994.04
2017-08-11T10:45:44.969Z,994.01
2017-08-11T10:46:55.380Z,993.96
2017-08-11T10:48:05.742Z,993.93
2017-08-11T10:49:16.094Z,993.82
2017-08-11T10:50:26.143Z,993.78
2017-08-11T10:51:36.580Z,993.7
2017-08-11T10:52:46.939Z,993.64
2017-08-11T10:53:57.299Z,993.61
2017-08-11T10:55:07.666Z,993.62
2017-08-11T10:56:18.039Z,993.63
2017-08-11T10:57:28.455Z,993.67
2017-08-11T10:58:38.511Z,993.72
2017-08-11T10:59:48.889Z,993.71
2017-08-11T11:00:59.253Z,993.74
2017-08-11T11:02:09.619Z,993.69
2017-08-11T11:03:19.737Z,993.66
2017-08-11T11:04:30.086Z,993.67
2017-08-11T11:05:39.818Z,993.72
2017-08-11T11:06:49.874Z,993.65
2017-08-11T11:08:00.224Z,993.59
2017-08-11T11:09:10.661Z,993.52
2017-08-11T11:10:21.010Z,993.51
2017-08-11T11:11:31.075Z,993.46
2017-08-11T11:12:41.430Z,993.44
2017-08-11T11:13:51.835Z,993.43
2017-08-11T11:15:02.271Z,993.46
2017-08-11T11:16:12.611Z,993.44
2017-08-11T11:17:22.963Z,993.43
2017-08-11T11:18:33.336Z,993.41
2017-08-11T11:19:43.384Z,993.44
2017-08-11T11:20:53.472Z,993.39
2017-08-11T11:22:03.849Z,993.31
2017-08-11T11:23:14.229Z,993.35
2017-08-11T11:24:24.585Z,993.4
2017-08-11T11:25:34.948Z,993.38
2017-08-11T11:26:45.369Z,993.33
2017-08-11T11:27:55.738Z,993.3
2017-08-11T11:29:06.107Z,993.18
2017-08-11T11:30:16.490Z,993.11
2017-08-11T11:31:26.865Z,993.09
2017-08-11T11:32:36.984Z,993.15
2017-08-11T11:33:48.855Z,993.16
2017-08-11T11:34:59.257Z,993.14
2017-08-11T11:36:09.618Z,993.19
2017-08-11T11:37:19.991Z,993.23
2017-08-11T11:38:30.418Z,993.13
2017-08-11T11:39:40.486Z,993.2
2017-08-11T11:40:50.864Z,993.16
2017-08-11T11:42:01.232Z,993.21
2017-08-11T11:43:11.275Z,993.11
2017-08-11T11:44:21.732Z,993.11
2017-08-11T11:45:32.097Z,993.11
2017-08-11T11:46:42.464Z,993.15
2017-08-11T11:47:52.822Z,993.26
2017-08-11T11:49:03.191Z,993.32
2017-08-11T11:50:13.594Z,993.33
2017-08-11T11:51:23.970Z,993.31
2017-08-11T11:52:34.025Z,993.38
2017-08-11T11:53:44.396Z,993.27
2017-08-11T11:54:54.769Z,993.18
2017-08-11T11:56:05.168Z,993.25
2017-08-11T11:57:15.545Z,993.13
2017-08-11T11:58:25.597Z,993.13
2017-08-11T11:59:36.722Z,993.19
2017-08-11T12:00:47.083Z,993.09
2017-08-11T12:01:57.685Z,993.1
2017-08-11T12:03:08.107Z,993.03
2017-08-11T12:04:18.476Z,993.06
2017-08-11T12:05:28.537Z,993.11
2017-08-11T12:06:38.886Z,993.24
2017-08-11T12:07:49.312Z,993.28
2017-08-11T12:08:59.677Z,993.36
2017-08-11T12:10:09.708Z,993.34
2017-08-11T12:11:20.057Z,993.25
2017-08-11T12:12:30.424Z,993.32
2017-08-11T12:13:40.833Z,993.3
2017-08-11T12:14:51.176Z,993.31
2017-08-11T12:16:00.918Z,993.28
2017-08-11T12:17:11.278Z,993.32
2017-08-11T12:18:21.632Z,993.24
2017-08-11T12:19:32.065Z,993.25
2017-08-11T12:20:42.449Z,993.18
2017-08-11T12:21:54.603Z,993.22
2017-08-11T12:23:04.975Z,993.23
2017-08-11T12:24:15.027Z,993.41
2017-08-11T12:25:25.436Z,993.38
2017-08-11T12:26:35.460Z,993.31
2017-08-11T12:27:45.823Z,993.33
2017-08-11T12:28:56.857Z,993.36
2017-08-11T12:30:07.220Z,993.36
2017-08-11T12:31:17.663Z,993.44
2017-08-11T12:32:28.024Z,993.52
2017-08-11T12:33:38.372Z,993.51
2017-08-11T12:34:48.740Z,993.49
2017-08-11T12:35:59.103Z,993.55
2017-08-11T12:37:09.516Z,993.49
2017-08-11T12:38:19.886Z,993.53
2017-08-11T12:39:30.238Z,993.52
2017-08-11T12:40:40.269Z,993.61
2017-08-11T12:41:50.316Z,993.56
2017-08-11T12:43:00.747Z,993.63
2017-08-11T12:44:10.811Z,993.64
2017-08-11T12:45:20.252Z,993.66
2017-08-11T12:46:30.296Z,993.61
2017-08-11T12:47:40.341Z,993.53
2017-08-11T12:48:50.447Z,993.58
2017-08-11T12:50:00.803Z,993.64
2017-08-11T12:51:12.377Z,993.66
2017-08-11T12:52:22.756Z,993.63
2017-08-11T12:53:32.803Z,993.69
2017-08-11T12:54:43.204Z,993.79
2017-08-11T12:55:52.931Z,993.78
2017-08-11T12:57:03.291Z,993.87
2017-08-11T12:58:13.350Z,994.02
2017-08-11T12:59:23.711Z,993.99
2017-08-11T13:00:34.131Z,993.9
2017-08-11T13:01:44.486Z,993.91
2017-08-11T13:02:54.864Z,993.88
2017-08-11T13:04:05.247Z,993.89
2017-08-11T13:05:14.982Z,994
2017-08-11T13:06:25.382Z,993.92
2017-08-11T13:07:35.425Z,993.92
2017-08-11T13:08:45.798Z,993.94
2017-08-11T13:09:55.529Z,993.99
2017-08-11T13:11:05.882Z,994.07
2017-08-11T13:12:15.980Z,993.99
2017-08-11T13:13:26.364Z,993.94
2017-08-11T13:14:36.397Z,993.82
2017-08-11T13:15:46.750Z,993.88
2017-08-11T13:16:56.471Z,993.92
2017-08-11T13:18:06.880Z,994.01
2017-08-11T13:19:17.240Z,994.15
2017-08-11T13:20:27.294Z,994.2
2017-08-11T13:21:37.652Z,994.08
2017-08-11T13:22:47.719Z,994.1
2017-08-11T13:23:58.191Z,994.08
2017-08-11T13:25:08.560Z,994.12
2017-08-11T13:26:18.933Z,994.04
2017-08-11T13:27:28.978Z,994.03
2017-08-11T13:28:39.319Z,993.97
2017-08-11T13:29:49.714Z,993.97
2017-08-11T13:31:00.089Z,993.91
2017-08-11T13:32:10.453Z,993.89
2017-08-11T13:33:20.494Z,993.99
2017-08-11T13:34:30.537Z,994.03
2017-08-11T13:35:40.943Z,994.05
2017-08-11T13:36:51.306Z,994.02
2017-08-11T13:38:01.343Z,994.04
2017-08-11T13:39:11.700Z,994.08
2017-08-11T13:40:22.070Z,994.1
2017-08-11T13:41:32.494Z,994.17
2017-08-11T13:42:42.545Z,994.07
2017-08-11T13:43:52.908Z,994.03
2017-08-11T13:45:03.291Z,994.01
2017-08-11T13:46:13.655Z,994.11
2017-08-11T13:47:23.768Z,994.09
2017-08-11T13:48:33.506Z,994.22
2017-08-11T13:49:44.942Z,994.1
2017-08-11T13:50:54.994Z,994.12
2017-08-11T13:52:05.361Z,994
2017-08-11T13:53:15.755Z,994.01
2017-08-11T13:54:26.138Z,994.02
2017-08-11T13:55:36.181Z,994.01
2017-08-11T13:56:47.383Z,994.05
2017-08-11T13:57:57.452Z,994.06
2017-08-11T13:59:07.845Z,994.1
2017-08-11T14:00:18.217Z,994
2017-08-11T14:01:28.566Z,994.08
2017-08-11T14:02:38.610Z,994.04
2017-08-11T14:03:48.983Z,994.08
2017-08-11T14:04:59.372Z,994.09
2017-08-11T14:06:09.737Z,994.08
2017-08-11T14:07:20.127Z,994.06
2017-08-11T14:08:30.493Z,993.99
2017-08-11T14:09:40.861Z,993.97
2017-08-11T14:10:51.274Z,993.91
2017-08-11T14:12:01.632Z,993.93
2017-08-11T14:13:12.944Z,993.98
2017-08-11T14:14:22.979Z,993.95
2017-08-11T14:15:33.022Z,993.95
2017-08-11T14:16:43.458Z,993.94
2017-08-11T14:17:53.809Z,993.93
2017-08-11T14:19:03.893Z,993.9
2017-08-11T14:20:14.262Z,993.89
2017-08-11T14:21:24.620Z,993.81
2017-08-11T14:22:35.028Z,993.8
2017-08-11T14:23:45.082Z,993.83
2017-08-11T14:24:55.493Z,993.82
2017-08-11T14:26:05.537Z,993.8
2017-08-11T14:27:15.895Z,993.8
2017-08-11T14:28:25.999Z,993.89
2017-08-11T14:29:36.373Z,993.85
2017-08-11T14:30:46.734Z,993.86
2017-08-11T14:31:57.094Z,993.9
2017-08-11T14:33:07.444Z,994
2017-08-11T14:34:17.855Z,994.01
2017-08-11T14:35:28.247Z,993.93
2017-08-11T14:36:38.607Z,993.87
2017-08-11T14:37:48.971Z,993.84
2017-08-11T14:38:59.315Z,993.9
2017-08-11T14:40:09.725Z,993.91
2017-08-11T14:41:20.091Z,993.99
2017-08-11T14:42:30.461Z,993.91
2017-08-11T14:43:40.816Z,993.89
2017-08-11T14:44:51.174Z,993.83
2017-08-11T14:46:01.586Z,993.78
2017-08-11T14:47:11.961Z,993.81
2017-08-11T14:48:22.334Z,993.84
2017-08-11T14:49:32.384Z,993.86
2017-08-11T14:50:42.447Z,993.83
2017-08-11T14:51:52.554Z,993.89
2017-08-11T14:53:02.615Z,993.91
2017-08-11T14:54:12.996Z,993.92
2017-08-11T14:55:22.742Z,993.93
2017-08-11T14:56:32.794Z,993.92
2017-08-11T14:57:42.558Z,993.93
2017-08-11T14:58:52.912Z,993.95
2017-08-11T15:00:03.274Z,993.97
2017-08-11T15:01:13.636Z,994.01
2017-08-11T15:02:24.004Z,993.99
2017-08-11T15:03:35.790Z,994
2017-08-11T15:04:47.036Z,993.94
2017-08-11T15:05:57.411Z,993.91
2017-08-11T15:07:07.781Z,993.9
2017-08-11T15:08:17.838Z,993.88
2017-08-11T15:09:27.927Z,993.96
2017-08-11T15:10:37.674Z,993.98